Time;durP1;ratioP1;P1;durP2;ratioP2;P2;SDS_P1;SDS_P2;PMS_P1;PMS_P2;Temp;Humidity;BMP_temperature;BMP_pressure;BME280_temperature;BME280_humidity;BME280_pressure;Samples;Min_cycle;Max_cycle;Signal;HPM_P1;HPM_P2
2023/06/30 00:00:39;;;;;;;7.45;6.72;;;;;;;;;;6215154;23;20257;-89
2023/06/30 00:03:06;;;;;;;9.88;8.73;;;;;;;;;;6214352;23;20264;-88
2023/06/30 00:05:34;;;;;;;8.85;8.02;;;;;;;;;;6214603;23;20174;-88
2023/06/30 00:08:03;;;;;;;8.02;7.15;;;;;;;;;;6216799;23;20174;-87
2023/06/30 00:10:30;;;;;;;9.80;8.35;;;;;;;;;;6216521;23;20197;-89
2023/06/30 00:12:58;;;;;;;9.55;7.97;;;;;;;;;;6216412;23;20337;-88
2023/06/30 00:15:27;;;;;;;8.48;7.13;;;;;;;;;;6216380;23;20176;-89
2023/06/30 00:17:55;;;;;;;9.18;8.23;;;;;;;;;;6216751;23;20260;-88
2023/06/30 00:20:23;;;;;;;10.00;9.07;;;;;;;;;;6216391;23;20190;-89
2023/06/30 00:22:51;;;;;;;8.50;7.70;;;;;;;;;;6216802;23;20503;-89
2023/06/30 00:25:19;;;;;;;11.20;8.68;;;;;;;;;;6216250;23;20166;-89
2023/06/30 00:27:47;;;;;;;10.02;7.88;;;;;;;;;;6216749;23;20177;-89
2023/06/30 00:30:15;;;;;;;12.43;9.90;;;;;;;;;;6216255;23;20220;-89
2023/06/30 00:32:44;;;;;;;9.95;9.00;;;;;;;;;;6216129;23;20232;-89
2023/06/30 00:35:11;;;;;;;10.52;9.32;;;;;;;;;;6216559;23;20667;-89
2023/06/30 00:37:39;;;;;;;12.65;10.52;;;;;;;;;;6216464;23;20249;-89
2023/06/30 00:40:08;;;;;;;13.75;12.07;;;;;;;;;;6236831;23;20192;-87
2023/06/30 00:42:35;;;;;;;11.20;8.93;;;;;;;;;;6246570;23;20177;-89
2023/06/30 00:45:03;;;;;;;12.88;10.85;;;;;;;;;;6246553;23;20172;-88
2023/06/30 00:47:31;;;;;;;11.38;8.88;;;;;;;;;;6247050;23;20689;-89
2023/06/30 00:50:00;;;;;;;11.40;10.10;;;;;;;;;;6246619;23;20216;-89
2023/06/30 00:52:28;;;;;;;11.88;8.60;;;;;;;;;;6246588;23;20270;-88
2023/06/30 00:54:55;;;;;;;8.13;6.35;;;;;;;;;;6246413;23;20200;-89
2023/06/30 00:57:23;;;;;;;6.35;5.75;;;;;;;;;;6246476;22;20256;-89
2023/06/30 00:59:50;;;;;;;6.10;4.93;;;;;;;;;;6246346;23;20193;-89
2023/06/30 01:02:22;;;;;;;10.68;9.13;;;;;;;;;;6246679;23;20252;-89
2023/06/30 01:04:57;;;;;;;8.93;8.02;;;;;;;;;;6246353;23;20232;-89
2023/06/30 01:07:35;;;;;;;14.38;11.25;;;;;;;;;;6246570;23;20261;-87
2023/06/30 01:10:13;;;;;;;12.50;10.75;;;;;;;;;;6246746;23;20268;-89
2023/06/30 01:12:41;;;;;;;11.85;10.65;;;;;;;;;;6246300;23;20181;-89
2023/06/30 01:15:09;;;;;;;14.50;11.02;;;;;;;;;;6246436;22;20180;-89
2023/06/30 01:17:40;;;;;;;15.70;11.57;;;;;;;;;;6246631;23;20548;-89
2023/06/30 01:20:11;;;;;;;14.68;12.07;;;;;;;;;;6246637;23;20687;-88
2023/06/30 01:22:47;;;;;;;14.18;11.32;;;;;;;;;;6246621;23;20592;-89
2023/06/30 01:25:22;;;;;;;12.77;10.77;;;;;;;;;;6246307;23;20232;-88
2023/06/30 01:27:50;;;;;;;14.93;12.02;;;;;;;;;;6246832;23;20216;-89
2023/06/30 01:30:18;;;;;;;14.80;12.30;;;;;;;;;;6246121;23;20276;-89
2023/06/30 01:32:45;;;;;;;17.48;13.70;;;;;;;;;;6246147;23;20193;-88
2023/06/30 01:35:13;;;;;;;15.07;12.70;;;;;;;;;;6246103;22;20480;-89
2023/06/30 01:37:42;;;;;;;15.68;13.23;;;;;;;;;;6246302;22;20256;-89
2023/06/30 01:40:11;;;;;;;15.88;12.38;;;;;;;;;;6246168;22;20228;-89
2023/06/30 01:42:39;;;;;;;13.55;11.02;;;;;;;;;;6246137;23;20687;-88
2023/06/30 01:45:08;;;;;;;14.43;12.32;;;;;;;;;;6245952;23;20211;-89
2023/06/30 01:47:36;;;;;;;13.60;11.95;;;;;;;;;;6246063;23;20511;-88
2023/06/30 01:50:05;;;;;;;15.20;12.02;;;;;;;;;;6246387;23;20279;-89
2023/06/30 01:52:32;;;;;;;14.05;12.55;;;;;;;;;;6246401;23;20203;-89
2023/06/30 01:55:02;;;;;;;13.30;11.38;;;;;;;;;;6245947;23;20175;-89
2023/06/30 01:57:30;;;;;;;13.05;11.73;;;;;;;;;;6246133;23;20669;-89
2023/06/30 01:59:57;;;;;;;14.30;12.15;;;;;;;;;;6245895;23;20587;-89
2023/06/30 02:02:24;;;;;;;17.27;12.98;;;;;;;;;;6246207;23;20624;-89
2023/06/30 02:04:52;;;;;;;13.30;11.32;;;;;;;;;;6245960;23;20679;-88
2023/06/30 02:07:20;;;;;;;13.38;11.48;;;;;;;;;;6245606;23;20548;-89
2023/06/30 02:09:47;;;;;;;13.32;11.10;;;;;;;;;;6245890;22;20193;-89
2023/06/30 02:12:16;;;;;;;12.65;10.90;;;;;;;;;;6245564;22;20220;-89
2023/06/30 02:14:44;;;;;;;12.52;11.05;;;;;;;;;;6245855;22;20173;-89
2023/06/30 02:17:12;;;;;;;11.85;10.65;;;;;;;;;;6245949;23;20197;-89
2023/06/30 02:19:39;;;;;;;12.77;11.23;;;;;;;;;;6245736;23;20700;-89
2023/06/30 02:22:07;;;;;;;16.52;14.10;;;;;;;;;;6245920;22;20278;-89
2023/06/30 02:24:35;;;;;;;17.85;12.93;;;;;;;;;;6245649;23;20251;-90
2023/06/30 02:27:03;;;;;;;16.83;13.80;;;;;;;;;;6245863;23;20555;-89
2023/06/30 02:29:32;;;;;;;13.32;11.05;;;;;;;;;;6245473;23;20731;-89
2023/06/30 02:31:59;;;;;;;12.15;10.82;;;;;;;;;;6245677;22;20188;-89
2023/06/30 02:34:27;;;;;;;14.93;10.75;;;;;;;;;;6245612;23;20256;-89
2023/06/30 02:36:54;;;;;;;12.82;10.65;;;;;;;;;;6245849;23;20179;-88
2023/06/30 02:39:21;;;;;;;11.88;10.52;;;;;;;;;;6245383;23;20598;-88
2023/06/30 02:41:49;;;;;;;11.38;10.07;;;;;;;;;;6245486;23;20278;-87
2023/06/30 02:44:16;;;;;;;12.23;10.82;;;;;;;;;;6245543;22;20201;-88
2023/06/30 02:46:46;;;;;;;10.80;9.70;;;;;;;;;;6245269;23;20252;-88
2023/06/30 02:49:13;;;;;;;8.38;7.53;;;;;;;;;;6245306;23;20219;-88
2023/06/30 02:51:41;;;;;;;7.72;6.57;;;;;;;;;;6245114;23;20165;-88
2023/06/30 02:54:08;;;;;;;6.45;5.53;;;;;;;;;;6245568;23;20224;-88
2023/06/30 02:56:36;;;;;;;7.55;6.78;;;;;;;;;;6245623;22;20208;-88
2023/06/30 02:59:03;;;;;;;8.45;7.57;;;;;;;;;;6245271;22;20203;-88
2023/06/30 03:01:31;;;;;;;7.38;6.35;;;;;;;;;;6245186;23;20177;-88
2023/06/30 03:04:00;;;;;;;7.60;6.80;;;;;;;;;;6244595;23;20251;-88
2023/06/30 03:06:27;;;;;;;7.03;6.32;;;;;;;;;;6244957;22;20200;-88
2023/06/30 03:08:54;;;;;;;6.07;5.40;;;;;;;;;;6245446;23;20231;-88
2023/06/30 03:11:22;;;;;;;8.73;7.55;;;;;;;;;;6245482;23;20184;-88
2023/06/30 03:13:51;;;;;;;9.65;7.30;;;;;;;;;;6244781;23;20199;-89
2023/06/30 03:16:18;;;;;;;9.07;7.65;;;;;;;;;;6245399;23;20173;-88
2023/06/30 03:18:46;;;;;;;10.15;8.55;;;;;;;;;;6245025;23;20231;-89
2023/06/30 03:21:15;;;;;;;15.30;10.85;;;;;;;;;;6244936;23;20216;-88
2023/06/30 03:23:42;;;;;;;12.75;10.30;;;;;;;;;;6245030;23;20211;-88
2023/06/30 03:26:10;;;;;;;14.52;11.10;;;;;;;;;;6244859;23;20180;-89
2023/06/30 03:28:37;;;;;;;9.27;7.45;;;;;;;;;;6244911;23;20220;-88
2023/06/30 03:31:04;;;;;;;10.00;8.32;;;;;;;;;;6245427;23;20568;-88
2023/06/30 03:33:32;;;;;;;11.20;9.20;;;;;;;;;;6245291;23;20602;-87
2023/06/30 03:36:00;;;;;;;10.90;8.63;;;;;;;;;;6244960;22;20236;-88
2023/06/30 03:38:28;;;;;;;9.65;8.30;;;;;;;;;;6245138;23;20184;-88
2023/06/30 03:40:56;;;;;;;7.63;6.28;;;;;;;;;;6244625;23;20244;-89
2023/06/30 03:43:23;;;;;;;8.25;7.45;;;;;;;;;;6244818;23;20172;-88
2023/06/30 03:45:51;;;;;;;8.88;7.75;;;;;;;;;;6244932;23;20166;-88
2023/06/30 03:48:20;;;;;;;10.48;9.27;;;;;;;;;;6244862;23;20172;-88
2023/06/30 03:50:49;;;;;;;7.85;6.97;;;;;;;;;;6245258;23;20699;-88
2023/06/30 03:53:17;;;;;;;9.13;8.10;;;;;;;;;;6244206;23;20276;-88
2023/06/30 03:55:45;;;;;;;8.68;7.88;;;;;;;;;;6244966;22;20200;-88
2023/06/30 03:58:13;;;;;;;8.60;7.45;;;;;;;;;;6244332;22;20209;-88
2023/06/30 04:00:40;;;;;;;8.77;7.70;;;;;;;;;;6244774;23;20272;-88
2023/06/30 04:03:08;;;;;;;9.57;8.30;;;;;;;;;;6245032;23;20197;-89
2023/06/30 04:05:36;;;;;;;10.55;9.20;;;;;;;;;;6244783;23;20642;-88
2023/06/30 04:08:03;;;;;;;11.80;9.80;;;;;;;;;;6245261;23;20570;-89
2023/06/30 04:10:31;;;;;;;11.38;9.35;;;;;;;;;;6245048;23;20279;-88
2023/06/30 04:12:59;;;;;;;10.98;9.05;;;;;;;;;;6244979;22;20204;-88
2023/06/30 04:15:27;;;;;;;8.75;7.85;;;;;;;;;;6244779;22;20256;-89
2023/06/30 04:17:54;;;;;;;9.48;8.23;;;;;;;;;;6244813;23;20215;-88
2023/06/30 04:20:22;;;;;;;7.53;6.43;;;;;;;;;;6245075;23;20268;-88
2023/06/30 04:22:49;;;;;;;6.35;5.65;;;;;;;;;;6244794;23;20204;-88
2023/06/30 04:25:17;;;;;;;8.45;7.15;;;;;;;;;;6244820;23;20248;-89
2023/06/30 04:27:44;;;;;;;12.52;9.52;;;;;;;;;;6244828;23;20169;-88
2023/06/30 04:30:15;;;;;;;11.23;9.00;;;;;;;;;;6245065;23;20564;-89
2023/06/30 04:32:42;;;;;;;9.48;8.45;;;;;;;;;;6244897;23;20635;-89
2023/06/30 04:35:10;;;;;;;10.30;9.20;;;;;;;;;;6244655;23;20586;-89
2023/06/30 04:37:40;;;;;;;8.77;7.85;;;;;;;;;;6245085;22;20179;-89
2023/06/30 04:40:09;;;;;;;8.30;7.32;;;;;;;;;;6244783;22;20283;-88
2023/06/30 04:42:37;;;;;;;12.02;10.73;;;;;;;;;;6249165;23;20177;-89
2023/06/30 04:45:06;;;;;;;13.90;11.70;;;;;;;;;;6245512;23;20236;-89
2023/06/30 04:47:34;;;;;;;14.95;11.80;;;;;;;;;;6244680;23;20165;-88
2023/06/30 04:50:04;;;;;;;8.82;7.93;;;;;;;;;;6244884;22;20315;-89
2023/06/30 04:52:31;;;;;;;11.63;9.55;;;;;;;;;;6246895;23;20683;-89
2023/06/30 04:54:59;;;;;;;15.20;11.82;;;;;;;;;;6246446;23;20196;-89
2023/06/30 04:57:26;;;;;;;11.15;10.05;;;;;;;;;;6246112;22;20576;-88
2023/06/30 04:59:55;;;;;;;11.02;9.40;;;;;;;;;;6245700;23;20193;-88
2023/06/30 05:02:23;;;;;;;10.10;8.50;;;;;;;;;;6246933;22;20196;-88
2023/06/30 05:04:52;;;;;;;9.15;8.00;;;;;;;;;;6245578;23;20173;-88
2023/06/30 05:07:20;;;;;;;10.75;8.73;;;;;;;;;;6245481;23;20193;-88
2023/06/30 05:09:48;;;;;;;13.80;10.95;;;;;;;;;;6246173;22;20193;-88
2023/06/30 05:12:15;;;;;;;11.88;10.68;;;;;;;;;;6246446;23;20196;-88
2023/06/30 05:14:43;;;;;;;12.00;10.35;;;;;;;;;;6246172;23;20280;-87
2023/06/30 05:17:10;;;;;;;12.15;10.90;;;;;;;;;;6246372;23;20173;-87
2023/06/30 05:19:37;;;;;;;13.18;10.88;;;;;;;;;;6246337;23;20224;-88
2023/06/30 05:22:07;;;;;;;14.75;11.52;;;;;;;;;;6246074;23;20219;-88
2023/06/30 05:24:34;;;;;;;15.82;13.82;;;;;;;;;;6245801;23;20208;-88
2023/06/30 05:27:03;;;;;;;12.65;11.20;;;;;;;;;;6246123;23;20566;-89
2023/06/30 05:29:32;;;;;;;14.13;12.55;;;;;;;;;;6246098;23;20229;-88
2023/06/30 05:31:59;;;;;;;13.13;11.82;;;;;;;;;;6246630;23;20487;-89
2023/06/30 05:34:27;;;;;;;12.85;11.50;;;;;;;;;;6246103;23;20207;-89
2023/06/30 05:36:55;;;;;;;15.32;12.30;;;;;;;;;;6246148;23;20253;-89
2023/06/30 05:39:25;;;;;;;15.73;14.10;;;;;;;;;;6231151;22;20198;-92
2023/06/30 05:41:52;;;;;;;17.08;13.82;;;;;;;;;;6226924;23;20681;-92
2023/06/30 05:44:20;;;;;;;15.27;13.38;;;;;;;;;;6244158;23;20201;-92
2023/06/30 05:46:47;;;;;;;17.85;14.63;;;;;;;;;;6253719;23;20185;-93
2023/06/30 05:49:15;;;;;;;15.75;13.43;;;;;;;;;;6252277;23;20173;-93
2023/06/30 05:51:43;;;;;;;19.48;16.00;;;;;;;;;;6252407;23;20188;-92
2023/06/30 05:54:12;;;;;;;18.98;16.85;;;;;;;;;;6252144;23;20204;-92
2023/06/30 05:56:41;;;;;;;12.73;10.88;;;;;;;;;;6251010;23;20170;-92
2023/06/30 05:59:10;;;;;;;11.57;9.90;;;;;;;;;;6264087;23;20180;-92
2023/06/30 06:01:38;;;;;;;9.20;7.93;;;;;;;;;;6262487;23;20165;-93
2023/06/30 06:04:08;;;;;;;9.05;6.57;;;;;;;;;;6263634;22;20192;-93
2023/06/30 06:06:36;;;;;;;6.82;5.88;;;;;;;;;;6274357;22;20157;-92
2023/06/30 06:09:04;;;;;;;4.75;4.13;;;;;;;;;;6274119;22;20161;-93
2023/06/30 06:11:31;;;;;;;4.60;3.95;;;;;;;;;;6274135;22;20157;-93
2023/06/30 06:14:00;;;;;;;3.63;2.97;;;;;;;;;;6273808;22;20181;-94
2023/06/30 06:16:28;;;;;;;2.30;2.08;;;;;;;;;;6271474;22;20216;-93
2023/06/30 06:18:56;;;;;;;2.08;1.90;;;;;;;;;;6271631;22;20184;-94
2023/06/30 06:21:27;;;;;;;1.88;1.77;;;;;;;;;;6266199;23;20180;-92
2023/06/30 06:23:55;;;;;;;1.92;1.83;;;;;;;;;;6267722;23;20200;-93
2023/06/30 06:26:22;;;;;;;1.60;1.50;;;;;;;;;;6266921;23;20161;-93
2023/06/30 06:28:50;;;;;;;2.08;1.65;;;;;;;;;;6269399;23;20173;-93
2023/06/30 06:31:19;;;;;;;1.75;1.30;;;;;;;;;;6269475;22;20157;-93
2023/06/30 06:33:46;;;;;;;1.50;1.40;;;;;;;;;;6268419;23;20189;-93
2023/06/30 06:36:14;;;;;;;1.48;1.38;;;;;;;;;;6267003;23;20200;-93
2023/06/30 06:38:41;;;;;;;1.25;1.17;;;;;;;;;;6267077;22;20166;-92
2023/06/30 06:41:09;;;;;;;2.33;1.40;;;;;;;;;;6274308;22;20161;-92
2023/06/30 06:43:36;;;;;;;1.05;1.00;;;;;;;;;;6274075;22;20185;-93
2023/06/30 06:46:04;;;;;;;0.90;0.90;;;;;;;;;;6274420;22;20156;-93
2023/06/30 06:48:33;;;;;;;1.20;1.10;;;;;;;;;;6274457;22;20153;-93
2023/06/30 06:51:03;;;;;;;1.25;1.20;;;;;;;;;;6272737;22;20176;-92
2023/06/30 06:53:32;;;;;;;2.13;0.95;;;;;;;;;;6267286;23;20193;-92
2023/06/30 06:56:00;;;;;;;1.45;1.27;;;;;;;;;;6259475;23;20272;-92
2023/06/30 06:58:30;;;;;;;0.80;0.80;;;;;;;;;;6258130;23;20185;-93
2023/06/30 07:00:59;;;;;;;0.90;0.90;;;;;;;;;;6257190;23;20173;-93
2023/06/30 07:03:27;;;;;;;0.90;0.90;;;;;;;;;;6256187;23;20219;-93
2023/06/30 07:05:58;;;;;;;0.88;0.88;;;;;;;;;;6256467;23;20630;-92
2023/06/30 07:08:28;;;;;;;1.00;1.00;;;;;;;;;;6257036;23;20176;-93
2023/06/30 07:10:56;;;;;;;2.90;1.10;;;;;;;;;;6268437;23;20221;-93
2023/06/30 07:13:24;;;;;;;2.45;1.20;;;;;;;;;;6266515;23;20194;-92
2023/06/30 07:15:51;;;;;;;0.95;0.95;;;;;;;;;;6267532;23;20193;-91
2023/06/30 07:18:20;;;;;;;1.27;1.20;;;;;;;;;;6265357;23;20164;-93
2023/06/30 07:20:48;;;;;;;0.90;0.90;;;;;;;;;;6264816;23;20177;-93
2023/06/30 07:23:17;;;;;;;1.05;1.05;;;;;;;;;;6265444;23;20175;-94
2023/06/30 07:25:45;;;;;;;1.38;1.27;;;;;;;;;;6265906;23;20169;-93
2023/06/30 07:28:13;;;;;;;0.80;0.80;;;;;;;;;;6266879;23;20153;-93
2023/06/30 07:30:42;;;;;;;1.20;1.10;;;;;;;;;;6264386;23;20169;-93
2023/06/30 07:33:10;;;;;;;1.10;1.10;;;;;;;;;;6264278;23;20180;-91
2023/06/30 07:35:38;;;;;;;1.27;1.10;;;;;;;;;;6262945;23;20199;-93
2023/06/30 07:38:05;;;;;;;1.83;1.30;;;;;;;;;;6263018;23;20173;-93
2023/06/30 07:40:36;;;;;;;1.10;1.10;;;;;;;;;;6261662;23;20188;-93
2023/06/30 07:43:03;;;;;;;0.90;0.90;;;;;;;;;;6260880;23;20181;-92
2023/06/30 07:45:31;;;;;;;1.02;1.02;;;;;;;;;;6264703;23;20203;-92
2023/06/30 07:47:58;;;;;;;1.00;1.00;;;;;;;;;;6262319;23;20177;-92
2023/06/30 07:50:26;;;;;;;1.27;1.25;;;;;;;;;;6260152;23;20194;-92
2023/06/30 07:52:54;;;;;;;0.93;0.93;;;;;;;;;;6261187;23;20169;-93
2023/06/30 07:55:22;;;;;;;1.10;1.10;;;;;;;;;;6261348;23;20380;-92
2023/06/30 07:57:52;;;;;;;1.42;1.33;;;;;;;;;;6262932;22;20175;-92
2023/06/30 08:00:20;;;;;;;1.58;1.48;;;;;;;;;;6261509;23;20169;-91
2023/06/30 08:02:48;;;;;;;1.45;1.35;;;;;;;;;;6262914;23;20169;-93
2023/06/30 08:05:16;;;;;;;1.48;1.38;;;;;;;;;;6263601;23;20193;-93
2023/06/30 08:07:45;;;;;;;1.90;1.60;;;;;;;;;;6264788;23;20169;-93
2023/06/30 08:10:13;;;;;;;1.40;1.30;;;;;;;;;;6264971;23;20179;-93
2023/06/30 08:12:41;;;;;;;2.17;2.00;;;;;;;;;;6264587;23;20173;-92
2023/06/30 08:15:11;;;;;;;1.50;1.50;;;;;;;;;;6264041;23;20204;-93
2023/06/30 08:17:39;;;;;;;1.73;1.63;;;;;;;;;;6262564;23;20196;-92
2023/06/30 08:20:09;;;;;;;1.85;1.73;;;;;;;;;;6263045;23;20169;-93
2023/06/30 08:22:36;;;;;;;2.30;1.75;;;;;;;;;;6263144;23;20164;-93
2023/06/30 08:25:05;;;;;;;1.95;1.85;;;;;;;;;;6263252;23;20193;-91
2023/06/30 08:27:32;;;;;;;1.50;1.42;;;;;;;;;;6264158;23;20183;-92
2023/06/30 08:30:02;;;;;;;1.70;1.60;;;;;;;;;;6263777;23;20173;-91
2023/06/30 08:32:31;;;;;;;1.88;1.77;;;;;;;;;;6265471;23;20165;-94
2023/06/30 08:34:59;;;;;;;1.83;1.73;;;;;;;;;;6265151;22;20192;-92
2023/06/30 08:37:27;;;;;;;4.15;2.03;;;;;;;;;;6265461;23;20193;-94
2023/06/30 08:39:54;;;;;;;2.42;2.20;;;;;;;;;;6266193;23;20463;-94
2023/06/30 08:42:26;;;;;;;2.45;2.33;;;;;;;;;;6267014;23;20176;-94
2023/06/30 08:44:53;;;;;;;2.50;2.22;;;;;;;;;;6269315;22;20181;-93
2023/06/30 08:47:23;;;;;;;2.63;2.42;;;;;;;;;;6274468;22;20165;-94
2023/06/30 08:49:52;;;;;;;2.83;2.63;;;;;;;;;;6273557;22;20180;-94
2023/06/30 08:52:20;;;;;;;3.03;2.83;;;;;;;;;;6273841;22;20186;-94
2023/06/30 08:54:47;;;;;;;3.17;2.88;;;;;;;;;;6273935;22;20184;-94
2023/06/30 08:57:17;;;;;;;3.10;2.80;;;;;;;;;;6274787;22;20185;-95
2023/06/30 08:59:45;;;;;;;3.22;3.03;;;;;;;;;;6274863;22;20450;-95
2023/06/30 09:02:13;;;;;;;2.60;2.45;;;;;;;;;;6274947;22;20157;-95
2023/06/30 09:04:42;;;;;;;2.25;2.05;;;;;;;;;;6274696;22;20208;-94
2023/06/30 09:07:18;;;;;;;2.15;2.05;;;;;;;;;;6274726;22;20176;-94
2023/06/30 09:09:47;;;;;;;2.45;2.25;;;;;;;;;;6274942;22;20156;-95
2023/06/30 09:12:15;;;;;;;2.72;2.53;;;;;;;;;;6274767;22;20160;-95
2023/06/30 09:14:43;;;;;;;2.60;2.50;;;;;;;;;;6272917;22;20200;-94
2023/06/30 09:17:10;;;;;;;2.40;2.20;;;;;;;;;;6274450;22;20191;-95
2023/06/30 09:19:38;;;;;;;2.53;2.33;;;;;;;;;;6274826;22;20200;-96
2023/06/30 09:22:07;;;;;;;2.97;2.78;;;;;;;;;;6274717;22;20157;-94
2023/06/30 09:24:36;;;;;;;3.00;2.80;;;;;;;;;;6274390;22;20173;-94
2023/06/30 09:27:04;;;;;;;2.33;2.13;;;;;;;;;;6274871;22;20157;-95
2023/06/30 09:29:34;;;;;;;3.58;2.60;;;;;;;;;;6275666;22;20212;-96
2023/06/30 09:32:03;;;;;;;2.63;2.15;;;;;;;;;;6275738;22;20149;-94
2023/06/30 09:34:31;;;;;;;3.35;3.15;;;;;;;;;;6275285;22;20187;-94
2023/06/30 09:36:59;;;;;;;2.50;2.30;;;;;;;;;;6275183;22;20165;-95
2023/06/30 09:39:27;;;;;;;2.60;2.40;;;;;;;;;;6275281;22;20191;-96
2023/06/30 09:41:56;;;;;;;2.30;2.20;;;;;;;;;;6274708;22;20153;-95
2023/06/30 09:44:24;;;;;;;2.75;2.55;;;;;;;;;;6274269;22;20169;-96
2023/06/30 09:46:53;;;;;;;3.20;2.90;;;;;;;;;;6274549;22;20201;-95
2023/06/30 09:49:26;;;;;;;3.13;2.85;;;;;;;;;;6274305;22;20153;-96
2023/06/30 09:51:55;;;;;;;2.60;2.40;;;;;;;;;;6274285;22;20201;-95
2023/06/30 09:54:22;;;;;;;3.00;2.80;;;;;;;;;;6273842;22;20223;-94
2023/06/30 09:56:59;;;;;;;2.65;2.45;;;;;;;;;;6269598;22;20197;-95
2023/06/30 09:59:27;;;;;;;2.95;2.42;;;;;;;;;;6273841;22;20157;-94
2023/06/30 10:01:55;;;;;;;2.30;2.20;;;;;;;;;;6273697;22;20176;-95
2023/06/30 10:04:24;;;;;;;2.53;2.33;;;;;;;;;;6273732;22;20215;-94
2023/06/30 10:06:53;;;;;;;2.35;2.15;;;;;;;;;;6273633;22;20203;-95
2023/06/30 10:09:22;;;;;;;2.60;2.40;;;;;;;;;;6271987;22;20179;-95
2023/06/30 10:11:53;;;;;;;3.38;3.17;;;;;;;;;;6273920;22;20727;-95
2023/06/30 10:14:29;;;;;;;3.10;2.80;;;;;;;;;;6273055;22;20189;-94
2023/06/30 10:16:59;;;;;;;3.53;3.05;;;;;;;;;;6272606;22;20189;-94
2023/06/30 10:19:27;;;;;;;3.90;3.60;;;;;;;;;;6273706;22;20161;-95
2023/06/30 10:21:54;;;;;;;3.95;3.65;;;;;;;;;;6273852;22;20161;-96
2023/06/30 10:24:26;;;;;;;4.25;3.85;;;;;;;;;;6273817;22;20184;-95
2023/06/30 10:26:55;;;;;;;4.20;3.80;;;;;;;;;;6274127;22;20180;-94
2023/06/30 10:29:24;;;;;;;5.07;3.67;;;;;;;;;;6272402;22;20165;-96
2023/06/30 10:31:52;;;;;;;3.35;3.15;;;;;;;;;;6273994;22;20157;-95
2023/06/30 10:34:20;;;;;;;4.50;4.10;;;;;;;;;;6273500;22;20177;-96
2023/06/30 10:36:48;;;;;;;4.47;4.18;;;;;;;;;;6273379;22;20158;-94
2023/06/30 10:39:16;;;;;;;8.82;4.15;;;;;;;;;;6272823;22;20187;-95
2023/06/30 10:41:47;;;;;;;5.82;4.43;;;;;;;;;;6272180;22;20173;-95
2023/06/30 10:44:18;;;;;;;4.00;3.60;;;;;;;;;;6272615;22;20181;-95
2023/06/30 10:46:52;;;;;;;6.15;3.83;;;;;;;;;;6272742;22;20179;-94
2023/06/30 10:49:29;;;;;;;3.30;3.00;;;;;;;;;;6272715;22;20161;-96
2023/06/30 10:51:58;;;;;;;6.78;4.00;;;;;;;;;;6272190;22;20156;-94
2023/06/30 10:54:27;;;;;;;4.68;4.28;;;;;;;;;;6273469;22;20215;-96
2023/06/30 10:57:07;;;;;;;3.67;3.38;;;;;;;;;;6273640;22;20164;-96
2023/06/30 10:59:40;;;;;;;4.38;3.97;;;;;;;;;;6273458;22;20156;-96
2023/06/30 11:02:14;;;;;;;5.00;4.53;;;;;;;;;;6273862;22;20153;-96
2023/06/30 11:04:42;;;;;;;5.18;4.78;;;;;;;;;;6273297;22;20238;-95
2023/06/30 11:07:11;;;;;;;4.28;3.20;;;;;;;;;;6273612;22;20176;-96
2023/06/30 11:10:01;;;;;;;5.38;4.40;;;;;;;;;;6273821;22;20149;-95
2023/06/30 11:12:45;;;;;;;5.13;4.18;;;;;;;;;;6273672;22;20157;-95
2023/06/30 11:15:30;;;;;;;4.07;3.78;;;;;;;;;;6273073;22;20188;-95
2023/06/30 11:18:03;;;;;;;4.65;3.90;;;;;;;;;;6273109;22;20184;-95
2023/06/30 11:20:31;;;;;;;4.80;4.30;;;;;;;;;;6273566;22;20184;-95
2023/06/30 11:23:03;;;;;;;3.38;2.78;;;;;;;;;;6273116;22;20157;-95
2023/06/30 11:25:32;;;;;;;5.75;3.45;;;;;;;;;;6273559;22;20153;-95
2023/06/30 11:28:03;;;;;;;3.20;2.78;;;;;;;;;;6273270;22;20172;-95
2023/06/30 11:30:36;;;;;;;6.03;3.58;;;;;;;;;;6273026;22;20164;-96
2023/06/30 11:33:06;;;;;;;3.95;3.10;;;;;;;;;;6273366;22;20149;-95
2023/06/30 11:35:36;;;;;;;4.07;2.88;;;;;;;;;;6273412;22;20164;-95
2023/06/30 11:38:03;;;;;;;3.65;3.33;;;;;;;;;;6273271;22;20188;-95
2023/06/30 11:40:31;;;;;;;4.72;3.63;;;;;;;;;;6273125;22;20187;-96
2023/06/30 11:42:58;;;;;;;4.10;3.40;;;;;;;;;;6273344;22;20163;-95
2023/06/30 11:45:28;;;;;;;3.58;3.28;;;;;;;;;;6272857;22;20208;-94
2023/06/30 11:47:57;;;;;;;4.05;3.47;;;;;;;;;;6271950;22;20189;-94
2023/06/30 11:50:31;;;;;;;3.75;3.35;;;;;;;;;;6269287;22;20173;-95
2023/06/30 11:52:58;;;;;;;4.97;3.20;;;;;;;;;;6268502;23;20193;-94
2023/06/30 11:55:28;;;;;;;4.65;3.90;;;;;;;;;;6265265;22;20165;-94
2023/06/30 11:57:56;;;;;;;4.28;3.38;;;;;;;;;;6267019;23;20192;-95
2023/06/30 12:00:26;;;;;;;5.20;3.80;;;;;;;;;;6266087;23;20176;-94
2023/06/30 12:02:53;;;;;;;4.75;3.38;;;;;;;;;;6265566;23;20173;-94
2023/06/30 12:05:27;;;;;;;2.90;2.60;;;;;;;;;;6266279;23;20189;-93
2023/06/30 12:07:56;;;;;;;2.60;2.40;;;;;;;;;;6270621;22;20179;-93
2023/06/30 12:10:37;;;;;;;3.33;2.85;;;;;;;;;;6272418;22;20146;-93
2023/06/30 12:13:08;;;;;;;4.25;2.70;;;;;;;;;;6270603;22;20184;-94
2023/06/30 12:15:36;;;;;;;2.78;2.50;;;;;;;;;;6268669;23;20181;-94
2023/06/30 12:18:05;;;;;;;4.35;2.80;;;;;;;;;;6268963;22;20227;-94
2023/06/30 12:20:37;;;;;;;2.60;2.40;;;;;;;;;;6269789;23;20181;-94
2023/06/30 12:23:06;;;;;;;2.92;2.47;;;;;;;;;;6274204;22;20199;-94
2023/06/30 12:25:35;;;;;;;2.45;2.25;;;;;;;;;;6274592;22;20176;-94
2023/06/30 12:28:06;;;;;;;2.38;2.17;;;;;;;;;;6274609;22;20168;-94
2023/06/30 12:30:34;;;;;;;3.25;2.60;;;;;;;;;;6274556;22;20161;-94
2023/06/30 12:33:03;;;;;;;3.72;2.30;;;;;;;;;;6273828;22;20149;-94
2023/06/30 12:35:34;;;;;;;2.40;2.20;;;;;;;;;;6269348;22;20165;-93
2023/06/30 12:38:04;;;;;;;4.43;2.80;;;;;;;;;;6260279;23;20177;-93
2023/06/30 12:40:31;;;;;;;1.95;1.85;;;;;;;;;;6260865;23;20228;-93
2023/06/30 12:42:59;;;;;;;3.65;2.60;;;;;;;;;;6260543;23;20169;-93
2023/06/30 12:45:27;;;;;;;2.20;2.00;;;;;;;;;;6258356;23;20173;-93
2023/06/30 12:47:54;;;;;;;3.25;2.33;;;;;;;;;;6255922;23;20193;-93
2023/06/30 12:50:22;;;;;;;2.28;2.08;;;;;;;;;;6258064;23;20176;-93
2023/06/30 12:52:51;;;;;;;2.85;1.95;;;;;;;;;;6257282;23;20169;-93
2023/06/30 12:55:22;;;;;;;2.95;2.47;;;;;;;;;;6258361;23;20193;-94
2023/06/30 12:57:50;;;;;;;1.80;1.70;;;;;;;;;;6261354;22;20225;-94
2023/06/30 13:00:19;;;;;;;5.40;2.08;;;;;;;;;;6271854;22;20201;-94
2023/06/30 13:02:47;;;;;;;1.40;1.30;;;;;;;;;;6272876;22;20153;-95
2023/06/30 13:05:14;;;;;;;1.80;1.70;;;;;;;;;;6272701;22;20181;-95
2023/06/30 13:07:42;;;;;;;2.60;2.38;;;;;;;;;;6272734;22;20157;-92
2023/06/30 13:10:11;;;;;;;2.40;2.20;;;;;;;;;;6273178;22;20157;-94
2023/06/30 13:12:41;;;;;;;1.60;1.50;;;;;;;;;;6274225;22;20149;-95
2023/06/30 13:15:10;;;;;;;1.40;1.30;;;;;;;;;;6274779;22;20196;-94
2023/06/30 13:17:37;;;;;;;1.38;1.27;;;;;;;;;;6274612;22;20150;-94
2023/06/30 13:20:07;;;;;;;2.10;1.52;;;;;;;;;;6274458;22;20181;-94
2023/06/30 13:22:35;;;;;;;1.83;1.65;;;;;;;;;;6274730;22;20173;-96
2023/06/30 13:25:03;;;;;;;3.20;1.60;;;;;;;;;;6274426;22;20165;-95
2023/06/30 13:27:33;;;;;;;1.10;1.10;;;;;;;;;;6274517;22;20153;-93
2023/06/30 13:30:01;;;;;;;1.40;1.30;;;;;;;;;;6274624;22;20157;-94
2023/06/30 13:32:28;;;;;;;1.55;1.10;;;;;;;;;;6274685;22;20157;-95
2023/06/30 13:34:57;;;;;;;1.50;1.40;;;;;;;;;;6274281;22;20181;-94
2023/06/30 13:37:24;;;;;;;1.67;1.20;;;;;;;;;;6274388;22;20164;-94
2023/06/30 13:39:52;;;;;;;4.05;2.03;;;;;;;;;;6274439;22;20184;-95
2023/06/30 13:42:20;;;;;;;2.58;1.30;;;;;;;;;;6274566;22;20149;-94
2023/06/30 13:44:49;;;;;;;1.30;1.20;;;;;;;;;;6274243;22;20173;-94
2023/06/30 13:47:17;;;;;;;1.60;1.50;;;;;;;;;;6274439;22;20166;-93
2023/06/30 13:49:45;;;;;;;1.55;1.40;;;;;;;;;;6274190;22;20157;-95
2023/06/30 13:52:12;;;;;;;1.60;1.50;;;;;;;;;;6274334;22;20153;-93
2023/06/30 13:54:40;;;;;;;1.23;1.20;;;;;;;;;;6274174;22;20213;-94
2023/06/30 13:57:08;;;;;;;2.25;1.42;;;;;;;;;;6274177;22;20173;-93
2023/06/30 13:59:36;;;;;;;1.63;1.30;;;;;;;;;;6274186;22;20205;-95
2023/06/30 14:02:05;;;;;;;3.55;3.25;;;;;;;;;;6274395;22;20160;-94
2023/06/30 14:04:33;;;;;;;2.20;1.65;;;;;;;;;;6274168;22;20177;-95
2023/06/30 14:07:02;;;;;;;2.25;1.70;;;;;;;;;;6274444;22;20200;-94
2023/06/30 14:09:30;;;;;;;6.75;2.28;;;;;;;;;;6274157;22;20154;-94
2023/06/30 14:11:57;;;;;;;2.25;2.08;;;;;;;;;;6272723;22;20154;-94
2023/06/30 14:14:25;;;;;;;2.90;1.60;;;;;;;;;;6272577;22;20212;-94
2023/06/30 14:16:52;;;;;;;1.95;1.70;;;;;;;;;;6273990;22;20204;-93
2023/06/30 14:19:21;;;;;;;1.95;1.48;;;;;;;;;;6274080;22;20180;-93
2023/06/30 14:21:49;;;;;;;1.98;1.70;;;;;;;;;;6274169;22;20160;-93
2023/06/30 14:24:17;;;;;;;4.15;2.13;;;;;;;;;;6272675;22;20185;-94
2023/06/30 14:26:44;;;;;;;3.72;1.73;;;;;;;;;;6273260;22;20157;-93
2023/06/30 14:29:12;;;;;;;3.00;2.22;;;;;;;;;;6272364;22;20160;-94
2023/06/30 14:31:40;;;;;;;2.70;1.98;;;;;;;;;;6272629;22;20173;-93
2023/06/30 14:34:09;;;;;;;2.10;1.73;;;;;;;;;;6270606;22;20173;-94
2023/06/30 14:36:38;;;;;;;2.28;1.88;;;;;;;;;;6272273;23;20188;-93
2023/06/30 14:39:06;;;;;;;2.00;1.80;;;;;;;;;;6270894;22;20192;-94
2023/06/30 14:41:33;;;;;;;2.00;1.80;;;;;;;;;;6267206;22;20169;-94
2023/06/30 14:44:02;;;;;;;3.28;1.70;;;;;;;;;;6269355;22;20193;-92